createdAt,value
2018-05-04T00:00:26.273Z,14.20
2018-05-04T00:02:55.303Z,14.30
2018-05-04T00:05:23.593Z,14.20
2018-05-04T00:07:51.820Z,14.00
2018-05-04T00:10:20.855Z,14.20
2018-05-04T00:12:49.096Z,14.10
2018-05-04T00:15:18.108Z,14.20
2018-05-04T00:17:46.355Z,14.30
2018-05-04T00:20:14.605Z,14.40
2018-05-04T00:22:42.857Z,14.10
2018-05-04T00:25:11.163Z,14.20
2018-05-04T00:27:39.386Z,14.20
2018-05-04T00:30:07.638Z,13.90
2018-05-04T00:32:35.889Z,14.00
2018-05-04T00:35:04.194Z,14.20
2018-05-04T00:37:32.418Z,14.10
2018-05-04T00:40:01.548Z,13.80
2018-05-04T00:42:29.808Z,13.90
2018-05-04T00:44:58.163Z,13.80
2018-05-04T00:47:26.496Z,13.80
2018-05-04T00:49:54.915Z,13.70
2018-05-04T00:52:23.181Z,13.40
2018-05-04T00:54:51.417Z,13.40
2018-05-04T00:57:20.436Z,13.50
2018-05-04T00:59:49.432Z,13.70
2018-05-04T01:02:17.668Z,13.60
2018-05-04T01:04:46.706Z,13.50
2018-05-04T01:07:15.039Z,13.80
2018-05-04T01:09:43.310Z,13.60
2018-05-04T01:12:11.560Z,13.30
2018-05-04T01:14:39.804Z,13.40
2018-05-04T01:17:08.814Z,13.50
2018-05-04T01:19:37.842Z,13.10
2018-05-04T01:22:06.084Z,13.40
2018-05-04T01:24:35.108Z,13.20
2018-05-04T01:27:03.361Z,13.00
2018-05-04T01:29:32.405Z,12.90
2018-05-04T01:32:00.673Z,12.90
2018-05-04T01:34:28.932Z,12.90
2018-05-04T01:36:57.174Z,13.00
2018-05-04T01:39:25.472Z,13.10
2018-05-04T01:41:53.690Z,13.10
2018-05-04T01:44:21.943Z,13.10
2018-05-04T01:46:50.963Z,13.00
2018-05-04T01:49:19.267Z,13.00
2018-05-04T01:51:47.512Z,13.00
2018-05-04T01:54:15.754Z,12.80
2018-05-04T01:56:45.539Z,12.90
2018-05-04T01:59:13.756Z,13.00
2018-05-04T02:01:42.011Z,13.00
2018-05-04T02:04:10.240Z,13.20
2018-05-04T02:06:39.252Z,12.90
2018-05-04T02:09:07.500Z,12.80
2018-05-04T02:11:36.526Z,12.70
2018-05-04T02:14:04.783Z,12.60
2018-05-04T02:16:33.039Z,12.50
2018-05-04T02:19:01.284Z,12.60
2018-05-04T02:21:29.532Z,12.50
2018-05-04T02:23:58.609Z,12.80
2018-05-04T02:26:26.863Z,12.70
2018-05-04T02:28:55.088Z,12.80
2018-05-04T02:31:24.167Z,12.60
2018-05-04T02:33:52.384Z,12.40
2018-05-04T02:36:20.676Z,12.60
2018-05-04T02:38:48.913Z,12.70
2018-05-04T02:41:17.175Z,12.90
2018-05-04T02:43:46.909Z,12.50
2018-05-04T02:46:15.927Z,12.30
2018-05-04T02:48:44.180Z,12.60
2018-05-04T02:51:12.441Z,12.20
2018-05-04T02:53:40.665Z,12.60
2018-05-04T02:56:08.929Z,12.50
2018-05-04T02:58:37.934Z,12.60
2018-05-04T03:01:06.958Z,12.50
2018-05-04T03:03:35.208Z,12.20
2018-05-04T03:06:04.213Z,12.30
2018-05-04T03:08:33.213Z,12.30
2018-05-04T03:11:02.223Z,12.00
2018-05-04T03:13:30.463Z,12.20
2018-05-04T03:15:58.731Z,12.40
2018-05-04T03:18:26.949Z,12.10
2018-05-04T03:20:55.232Z,12.20
2018-05-04T03:23:23.489Z,12.20
2018-05-04T03:25:51.726Z,12.10
2018-05-04T03:28:19.980Z,11.90
2018-05-04T03:30:48.233Z,11.90
2018-05-04T03:33:17.236Z,11.70
2018-05-04T03:35:46.240Z,11.70
2018-05-04T03:38:15.248Z,11.60
2018-05-04T03:40:43.482Z,11.80
2018-05-04T03:43:12.528Z,11.50
2018-05-04T03:45:40.786Z,11.80
2018-05-04T03:48:09.804Z,11.50
2018-05-04T03:50:38.064Z,11.50
2018-05-04T03:53:06.289Z,11.50
2018-05-04T03:55:34.569Z,11.50
2018-05-04T03:58:14.619Z,11.60
2018-05-04T04:00:54.790Z,11.60
2018-05-04T04:03:34.989Z,11.70
2018-05-04T04:06:03.266Z,11.30
2018-05-04T04:08:32.295Z,11.40
2018-05-04T04:11:00.536Z,11.40
2018-05-04T04:13:29.556Z,11.30
2018-05-04T04:15:57.807Z,11.40
2018-05-04T04:18:26.119Z,11.30
2018-05-04T04:20:54.357Z,11.50
2018-05-04T04:23:22.599Z,11.20
2018-05-04T04:25:50.840Z,11.50
2018-05-04T04:28:19.996Z,11.30
2018-05-04T04:30:48.107Z,11.50
2018-05-04T04:33:17.159Z,11.30
2018-05-04T04:35:45.448Z,11.20
2018-05-04T04:38:13.697Z,11.20
2018-05-04T04:40:41.945Z,11.50
2018-05-04T04:43:10.992Z,11.20
2018-05-04T04:45:39.265Z,11.50
2018-05-04T04:48:08.279Z,11.20
2018-05-04T04:50:36.529Z,11.20
2018-05-04T04:53:04.785Z,11.50
2018-05-04T04:55:33.025Z,11.40
2018-05-04T04:58:01.297Z,11.50
2018-05-04T05:00:29.529Z,11.50
2018-05-04T05:02:58.587Z,11.60
2018-05-04T05:05:26.809Z,11.60
2018-05-04T05:07:55.084Z,11.50
2018-05-04T05:10:24.081Z,11.70
2018-05-04T05:12:53.464Z,11.50
2018-05-04T05:15:21.837Z,11.50
2018-05-04T05:17:50.163Z,11.40
2018-05-04T05:20:19.173Z,11.80
2018-05-04T05:22:47.446Z,11.40
2018-05-04T05:25:16.448Z,11.60
2018-05-04T05:27:45.473Z,11.80
2018-05-04T05:30:13.720Z,11.60
2018-05-04T05:32:42.757Z,11.70
2018-05-04T05:35:10.993Z,11.80
2018-05-04T05:37:40.020Z,11.80
2018-05-04T05:40:09.092Z,12.00
2018-05-04T05:42:38.286Z,12.10
2018-05-04T05:45:07.311Z,12.10
2018-05-04T05:47:35.567Z,11.90
2018-05-04T05:50:04.588Z,12.10
2018-05-04T05:52:32.829Z,12.30
2018-05-04T05:55:01.113Z,12.30
2018-05-04T05:57:30.125Z,12.20
2018-05-04T05:59:59.175Z,12.70
2018-05-04T06:02:27.432Z,12.40
2018-05-04T06:04:55.673Z,12.50
2018-05-04T06:07:24.680Z,13.00
2018-05-04T06:09:53.710Z,12.90
2018-05-04T06:12:21.948Z,12.80
2018-05-04T06:14:50.985Z,13.10
2018-05-04T06:17:20.879Z,13.00
2018-05-04T06:19:49.148Z,13.10
2018-05-04T06:22:18.150Z,13.10
2018-05-04T06:24:47.172Z,13.10
2018-05-04T06:27:15.415Z,13.10
2018-05-04T06:29:44.449Z,13.20
2018-05-04T06:32:12.687Z,13.20
2018-05-04T06:34:40.943Z,13.20
2018-05-04T06:37:09.203Z,13.20
2018-05-04T06:39:37.525Z,13.40
2018-05-04T06:42:05.698Z,13.40
2018-05-04T06:44:33.942Z,13.60
2018-05-04T06:47:02.199Z,13.40
2018-05-04T06:49:31.263Z,13.80
2018-05-04T06:51:59.483Z,13.70
2018-05-04T06:54:27.748Z,13.80
2018-05-04T06:56:56.003Z,13.90
2018-05-04T06:59:24.316Z,14.10
2018-05-04T07:01:52.499Z,14.00
2018-05-04T07:04:20.776Z,13.70
2018-05-04T07:06:49.036Z,14.30
2018-05-04T07:09:18.058Z,14.20
2018-05-04T07:11:46.300Z,14.10
2018-05-04T07:14:14.581Z,13.90
2018-05-04T07:16:42.801Z,14.10
2018-05-04T07:19:11.102Z,14.10
2018-05-04T07:21:39.424Z,14.00
2018-05-04T07:24:07.671Z,14.30
2018-05-04T07:26:35.943Z,14.30
2018-05-04T07:29:04.195Z,14.40
2018-05-04T07:31:33.201Z,14.40
2018-05-04T07:34:01.451Z,14.50
2018-05-04T07:36:29.772Z,14.50
2018-05-04T07:38:58.008Z,14.50
2018-05-04T07:41:27.012Z,14.70
2018-05-04T07:43:55.264Z,14.70
2018-05-04T07:46:23.508Z,14.80
2018-05-04T07:48:51.756Z,14.90
2018-05-04T07:51:20.836Z,15.30
2018-05-04T07:53:49.060Z,15.20
2018-05-04T07:56:38.030Z,15.50
2018-05-04T07:59:06.297Z,15.60
2018-05-04T08:01:34.534Z,15.30
2018-05-04T08:04:02.828Z,15.50
2018-05-04T08:06:31.835Z,15.60
2018-05-04T08:09:01.566Z,15.70
2018-05-04T08:11:30.346Z,15.50
2018-05-04T08:13:58.687Z,15.90
2018-05-04T08:16:27.028Z,15.80
2018-05-04T08:18:55.333Z,16.00
2018-05-04T08:21:23.619Z,16.30
2018-05-04T08:23:52.665Z,16.00
2018-05-04T08:26:20.957Z,16.30
2018-05-04T08:28:49.203Z,16.20
2018-05-04T08:31:17.440Z,15.90
2018-05-04T08:33:45.683Z,16.10
2018-05-04T08:36:14.708Z,16.00
2018-05-04T08:38:42.932Z,16.00
2018-05-04T08:41:11.190Z,16.00
2018-05-04T08:43:39.456Z,16.20
2018-05-04T08:46:07.703Z,16.60
2018-05-04T08:48:36.722Z,16.30
2018-05-04T08:51:05.124Z,16.10
2018-05-04T08:53:33.265Z,16.20
2018-05-04T08:56:01.540Z,16.70
2018-05-04T08:58:29.807Z,16.80
2018-05-04T09:00:59.572Z,16.40
2018-05-04T09:03:27.795Z,16.40
2018-05-04T09:05:56.055Z,16.70
2018-05-04T09:08:24.305Z,16.50
2018-05-04T09:10:52.573Z,16.80
2018-05-04T09:13:20.821Z,17.10
2018-05-04T09:15:49.846Z,16.90
2018-05-04T09:18:18.095Z,16.90
2018-05-04T09:20:47.141Z,17.00
2018-05-04T09:23:15.401Z,17.20
2018-05-04T09:25:43.659Z,17.20
2018-05-04T09:28:11.888Z,17.60
2018-05-04T09:30:40.935Z,17.50
2018-05-04T09:33:09.159Z,17.60
2018-05-04T09:35:37.400Z,17.70
2018-05-04T09:38:06.403Z,17.80
2018-05-04T09:40:35.421Z,18.20
2018-05-04T09:43:03.665Z,18.20
2018-05-04T09:45:31.912Z,18.00
2018-05-04T09:48:00.145Z,18.00
2018-05-04T09:50:28.612Z,18.10
2018-05-04T09:52:57.723Z,18.40
2018-05-04T09:55:26.729Z,18.40
2018-05-04T09:57:54.981Z,18.30
2018-05-04T10:00:24.159Z,18.70
2018-05-04T10:02:52.399Z,18.70
2018-05-04T10:05:20.650Z,18.60
2018-05-04T10:07:49.692Z,18.70
2018-05-04T10:10:18.027Z,18.70
2018-05-04T10:12:46.271Z,18.80
2018-05-04T10:15:14.505Z,18.80
2018-05-04T10:17:43.528Z,18.80
2018-05-04T10:20:11.774Z,18.90
2018-05-04T10:22:40.008Z,18.70
2018-05-04T10:25:08.295Z,18.80
2018-05-04T10:27:36.522Z,19.00
2018-05-04T10:30:05.539Z,19.30
2018-05-04T10:32:33.784Z,19.30
2018-05-04T10:35:02.060Z,18.90
2018-05-04T10:37:30.330Z,19.00
2018-05-04T10:39:58.574Z,19.00
2018-05-04T10:42:26.859Z,18.70
2018-05-04T10:44:55.075Z,18.70
2018-05-04T10:47:23.354Z,18.90
2018-05-04T10:49:51.591Z,19.00
2018-05-04T10:52:19.875Z,19.20
2018-05-04T10:54:48.109Z,19.00
2018-05-04T10:57:17.211Z,19.20
2018-05-04T10:59:45.382Z,18.90
2018-05-04T11:02:13.619Z,18.90
2018-05-04T11:04:42.489Z,18.90
2018-05-04T11:07:10.784Z,18.80
2018-05-04T11:09:39.009Z,19.20
2018-05-04T11:12:07.260Z,18.90
2018-05-04T11:14:35.525Z,19.40
2018-05-04T11:17:03.805Z,19.10
2018-05-04T11:19:32.075Z,19.10
2018-05-04T11:22:01.102Z,19.40
2018-05-04T11:24:29.484Z,19.40
2018-05-04T11:26:57.738Z,19.60
2018-05-04T11:29:25.995Z,19.40
2018-05-04T11:31:55.036Z,19.30
2018-05-04T11:34:23.267Z,19.20
2018-05-04T11:36:51.543Z,19.30
2018-05-04T11:39:20.549Z,19.30
2018-05-04T11:41:49.697Z,19.60
2018-05-04T11:44:18.944Z,19.30
2018-05-04T11:46:47.971Z,19.40
2018-05-04T11:49:16.250Z,19.20
2018-05-04T11:51:44.537Z,19.20
2018-05-04T11:54:12.872Z,19.40
2018-05-04T11:56:41.112Z,19.70
2018-05-04T11:59:09.399Z,19.70
2018-05-04T12:01:38.874Z,19.40
2018-05-04T12:04:07.156Z,19.20
2018-05-04T12:06:35.400Z,19.20
2018-05-04T12:09:03.698Z,19.30
2018-05-04T12:11:32.058Z,19.20
2018-05-04T12:14:00.296Z,19.30
2018-05-04T12:16:28.527Z,19.40
2018-05-04T12:18:56.819Z,19.90
2018-05-04T12:21:25.841Z,19.90
2018-05-04T12:23:54.117Z,19.60
2018-05-04T12:26:22.360Z,19.90
2018-05-04T12:28:50.637Z,20.00
2018-05-04T12:31:18.864Z,20.00
2018-05-04T12:33:47.129Z,20.00
2018-05-04T12:36:15.388Z,19.90
2018-05-04T12:38:43.764Z,20.20
2018-05-04T12:41:12.044Z,20.10
2018-05-04T12:43:40.292Z,20.20
2018-05-04T12:46:08.547Z,20.20
2018-05-04T12:48:37.572Z,20.80
2018-05-04T12:51:05.828Z,20.40
2018-05-04T12:53:34.113Z,20.30
2018-05-04T12:56:03.109Z,20.50
2018-05-04T12:58:31.370Z,20.60
2018-05-04T13:01:00.375Z,20.40
2018-05-04T13:03:28.630Z,20.40
2018-05-04T13:05:56.859Z,20.40
2018-05-04T13:08:25.151Z,20.20
2018-05-04T13:10:53.393Z,20.30
2018-05-04T13:13:21.654Z,20.10
2018-05-04T13:15:49.881Z,20.30
2018-05-04T13:18:18.161Z,20.40
2018-05-04T13:20:46.424Z,20.60
2018-05-04T13:23:14.686Z,20.60
2018-05-04T13:25:43.724Z,20.70
2018-05-04T13:28:11.965Z,20.70
2018-05-04T13:30:41.242Z,20.70
2018-05-04T13:33:09.493Z,20.60
2018-05-04T13:35:37.758Z,20.80
2018-05-04T13:38:06.925Z,20.60
2018-05-04T13:40:35.928Z,20.50
2018-05-04T13:43:04.960Z,20.80
2018-05-04T13:45:33.225Z,21.00
2018-05-04T13:48:01.479Z,20.90
2018-05-04T13:50:30.473Z,21.10
2018-05-04T13:52:58.748Z,21.10
2018-05-04T13:55:27.744Z,21.00
2018-05-04T13:57:56.792Z,21.30
2018-05-04T14:00:25.028Z,21.20
2018-05-04T14:02:54.063Z,21.30
2018-05-04T14:05:22.303Z,21.30
2018-05-04T14:07:50.546Z,21.30
2018-05-04T14:10:18.829Z,21.00
2018-05-04T14:12:47.172Z,20.80
2018-05-04T14:15:15.340Z,21.30
2018-05-04T14:17:43.599Z,21.40
2018-05-04T14:20:12.656Z,21.50
2018-05-04T14:22:40.908Z,21.40
2018-05-04T14:25:09.193Z,21.50
2018-05-04T14:27:38.185Z,21.60
2018-05-04T14:30:06.452Z,21.60
2018-05-04T14:32:34.698Z,21.60
2018-05-04T14:35:02.981Z,21.60
2018-05-04T14:37:31.232Z,21.60
2018-05-04T14:39:59.455Z,21.60
2018-05-04T14:42:28.494Z,21.60
2018-05-04T14:44:56.728Z,21.60
2018-05-04T14:47:24.990Z,21.60
2018-05-04T14:49:53.225Z,21.60
2018-05-04T14:52:21.573Z,21.60
2018-05-04T14:54:49.815Z,21.60
2018-05-04T14:57:18.717Z,21.50
2018-05-04T14:59:47.267Z,21.10
2018-05-04T15:02:15.514Z,21.30
2018-05-04T15:04:43.787Z,21.30
2018-05-04T15:07:12.016Z,21.50
2018-05-04T15:09:40.282Z,21.60
2018-05-04T15:14:45.264Z,21.90
2018-05-04T15:17:13.504Z,21.90
2018-05-04T15:19:42.621Z,21.80
2018-05-04T15:22:10.901Z,21.80
2018-05-04T15:24:39.124Z,21.70
2018-05-04T15:27:07.440Z,21.50
2018-05-04T15:29:35.673Z,21.50
2018-05-04T15:32:03.976Z,21.50
2018-05-04T15:34:32.261Z,21.40
2018-05-04T15:37:00.521Z,21.40
2018-05-04T15:39:28.774Z,21.10
2018-05-04T15:41:57.030Z,21.50
2018-05-04T15:44:26.061Z,21.60
2018-05-04T15:46:54.323Z,21.40
2018-05-04T15:49:22.616Z,21.70
2018-05-04T15:51:56.474Z,21.70
2018-05-04T15:54:24.851Z,21.50
2018-05-04T15:56:53.191Z,21.30
2018-05-04T15:59:21.452Z,21.30
2018-05-04T16:01:49.878Z,21.30
2018-05-04T16:04:18.046Z,21.30
2018-05-04T16:06:46.339Z,21.50
2018-05-04T16:09:14.618Z,21.20
2018-05-04T16:11:42.851Z,21.20
2018-05-04T16:14:11.127Z,21.10
2018-05-04T16:16:40.138Z,21.40
2018-05-04T16:19:08.404Z,21.40
2018-05-04T16:21:37.440Z,21.40
2018-05-04T16:24:05.699Z,21.60
2018-05-04T16:26:34.778Z,21.50
2018-05-04T16:29:03.000Z,21.50
2018-05-04T16:31:31.271Z,21.40
2018-05-04T16:33:59.547Z,21.40
2018-05-04T16:36:27.797Z,21.30
2018-05-04T16:38:56.836Z,21.00
2018-05-04T16:41:25.084Z,21.10
2018-05-04T16:43:53.350Z,21.10
2018-05-04T16:46:27.316Z,21.00
2018-05-04T16:49:01.193Z,21.00
2018-05-04T16:51:30.200Z,21.00
2018-05-04T16:53:58.455Z,21.00
2018-05-04T16:56:27.474Z,20.90
2018-05-04T16:58:55.738Z,21.20
2018-05-04T17:01:24.774Z,20.90
2018-05-04T17:03:53.067Z,20.90
2018-05-04T17:06:21.311Z,20.80
2018-05-04T17:08:49.594Z,20.80
2018-05-04T17:11:17.862Z,20.70
2018-05-04T17:13:46.108Z,20.50
2018-05-04T17:16:15.882Z,20.40
2018-05-04T17:18:44.149Z,20.60
2018-05-04T17:21:12.395Z,20.60
2018-05-04T17:23:40.677Z,20.20
2018-05-04T17:26:09.738Z,20.40
2018-05-04T17:28:38.067Z,20.60
2018-05-04T17:31:06.252Z,20.60
2018-05-04T17:33:35.323Z,20.70
2018-05-04T17:36:03.587Z,20.70
2018-05-04T17:38:31.844Z,20.40
2018-05-04T17:41:00.088Z,20.70
2018-05-04T17:43:29.135Z,20.60
2018-05-04T17:45:57.395Z,20.70
2018-05-04T17:48:25.642Z,20.60
2018-05-04T17:50:53.917Z,20.30
2018-05-04T17:53:22.912Z,20.20
2018-05-04T17:55:51.989Z,20.30
2018-05-04T17:58:20.339Z,20.30
2018-05-04T18:00:48.578Z,20.10
2018-05-04T18:03:17.609Z,20.30
2018-05-04T18:05:45.886Z,20.30
2018-05-04T18:08:14.127Z,20.40
2018-05-04T18:10:43.278Z,20.40
2018-05-04T18:13:11.561Z,20.30
2018-05-04T18:15:39.883Z,20.50
2018-05-04T18:18:08.420Z,20.60
2018-05-04T18:20:36.724Z,20.50
2018-05-04T18:23:05.007Z,20.40
2018-05-04T18:25:33.261Z,20.40
2018-05-04T18:28:01.496Z,20.20
2018-05-04T18:30:29.729Z,20.10
2018-05-04T18:32:58.034Z,20.00
2018-05-04T18:35:26.266Z,20.00
2018-05-04T18:37:55.236Z,20.10
2018-05-04T18:40:24.321Z,20.00
2018-05-04T18:42:52.518Z,20.10
2018-05-04T18:45:21.523Z,19.50
2018-05-04T18:47:50.566Z,19.70
2018-05-04T18:50:18.819Z,19.50
2018-05-04T18:52:47.069Z,19.60
2018-05-04T18:55:15.355Z,20.00
2018-05-04T18:57:43.589Z,19.90
2018-05-04T19:00:11.947Z,19.40
2018-05-04T19:02:55.913Z,19.70
2018-05-04T19:05:24.173Z,19.90
2018-05-04T19:07:52.415Z,19.60
2018-05-04T19:10:21.435Z,19.70
2018-05-04T19:12:49.724Z,19.70
2018-05-04T19:15:18.734Z,19.90
2018-05-04T19:17:47.022Z,19.60
2018-05-04T19:20:15.265Z,19.70
2018-05-04T19:22:44.301Z,19.40
2018-05-04T19:25:12.560Z,19.60
2018-05-04T19:27:40.792Z,19.50
2018-05-04T19:30:09.065Z,19.50
2018-05-04T19:32:37.549Z,19.60
2018-05-04T19:35:05.817Z,19.40
2018-05-04T19:37:34.073Z,19.60
2018-05-04T19:40:02.363Z,19.60
2018-05-04T19:42:30.601Z,19.50
2018-05-04T19:44:59.658Z,19.90
2018-05-04T19:47:27.923Z,19.70
2018-05-04T19:49:56.189Z,19.70
2018-05-04T19:52:24.518Z,20.00
2018-05-04T19:54:53.502Z,19.90
2018-05-04T19:57:21.748Z,19.80
2018-05-04T19:59:50.743Z,19.90
2018-05-04T20:02:19.022Z,20.10
2018-05-04T20:04:47.318Z,20.20
2018-05-04T20:07:15.658Z,19.90
2018-05-04T20:09:44.019Z,19.70
2018-05-04T20:12:12.301Z,19.70
2018-05-04T20:14:40.521Z,19.90
2018-05-04T20:17:08.825Z,19.70
2018-05-04T20:19:37.097Z,19.80
2018-05-04T20:22:05.584Z,19.60
2018-05-04T20:24:33.936Z,19.40
2018-05-04T20:27:02.936Z,19.90
2018-05-04T20:29:31.987Z,19.70
2018-05-04T20:32:00.982Z,19.90
2018-05-04T20:34:29.253Z,19.70
2018-05-04T20:36:57.535Z,19.70
2018-05-04T20:39:25.811Z,19.70
2018-05-04T20:41:54.113Z,19.80
2018-05-04T20:44:22.477Z,19.80
2018-05-04T20:46:50.749Z,19.80
2018-05-04T20:49:19.004Z,19.60
2018-05-04T20:51:48.106Z,19.40
2018-05-04T20:54:16.383Z,19.50
2018-05-04T20:56:44.649Z,19.40
2018-05-04T20:59:13.687Z,19.70
2018-05-04T21:01:41.983Z,19.70
2018-05-04T21:04:10.231Z,19.60
2018-05-04T21:06:38.641Z,19.40
2018-05-04T21:09:06.905Z,19.30
2018-05-04T21:11:35.146Z,19.40
2018-05-04T21:14:04.238Z,19.10
2018-05-04T21:16:32.467Z,19.20
2018-05-04T21:19:00.711Z,19.10
2018-05-04T21:21:29.765Z,19.10
2018-05-04T21:23:58.015Z,19.10
2018-05-04T21:26:26.412Z,19.30
2018-05-04T21:28:54.683Z,19.20
2018-05-04T21:31:22.958Z,19.20
2018-05-04T21:33:51.192Z,19.10
2018-05-04T21:36:19.456Z,19.20
2018-05-04T21:38:47.730Z,19.10
2018-05-04T21:41:15.996Z,18.90
2018-05-04T21:43:44.239Z,18.90
2018-05-04T21:46:13.274Z,18.80
2018-05-04T21:48:41.544Z,18.80
2018-05-04T21:51:09.790Z,18.80
2018-05-04T21:53:38.801Z,18.80
2018-05-04T21:56:07.110Z,18.60
2018-05-04T21:58:35.373Z,18.70
2018-05-04T22:01:03.628Z,18.60
2018-05-04T22:03:32.691Z,18.60
2018-05-04T22:06:00.958Z,18.80
2018-05-04T22:08:29.292Z,18.60
2018-05-04T22:10:57.565Z,18.70
2018-05-04T22:13:25.865Z,18.80
2018-05-04T22:15:54.879Z,19.00
2018-05-04T22:18:23.165Z,18.80
2018-05-04T22:20:51.415Z,19.00
2018-05-04T22:23:20.429Z,18.50
2018-05-04T22:25:49.433Z,18.10
2018-05-04T22:28:17.704Z,18.00
2018-05-04T22:30:45.971Z,18.10
2018-05-04T22:33:15.599Z,17.70
2018-05-04T22:35:43.949Z,17.90
2018-05-04T22:38:12.236Z,17.80
2018-05-04T22:40:40.611Z,17.80
2018-05-04T22:43:08.989Z,17.80
2018-05-04T22:45:37.254Z,17.90
2018-05-04T22:48:05.525Z,17.80
2018-05-04T22:50:33.794Z,17.90
2018-05-04T22:53:02.031Z,18.20
2018-05-04T22:55:31.109Z,18.00
2018-05-04T22:57:59.395Z,18.30
2018-05-04T23:00:27.655Z,18.30
2018-05-04T23:02:55.920Z,18.40
2018-05-04T23:05:24.166Z,18.00
2018-05-04T23:07:53.220Z,17.80
2018-05-04T23:10:21.476Z,18.00
2018-05-04T23:12:49.725Z,18.10
2018-05-04T23:15:18.000Z,18.00
2018-05-04T23:17:46.352Z,18.00
2018-05-04T23:20:14.604Z,18.00
2018-05-04T23:22:42.871Z,18.00
2018-05-04T23:25:11.129Z,17.70
2018-05-04T23:27:39.378Z,17.70
2018-05-04T23:30:07.668Z,17.90
2018-05-04T23:32:36.676Z,17.60
2018-05-04T23:35:05.676Z,17.50
2018-05-04T23:37:33.976Z,17.80
2018-05-04T23:40:02.221Z,17.50
2018-05-04T23:42:31.283Z,17.40
2018-05-04T23:44:59.543Z,17.50
2018-05-04T23:47:28.529Z,17.60
2018-05-04T23:49:56.817Z,17.70
2018-05-04T23:52:25.073Z,17.60
2018-05-04T23:54:54.077Z,17.50
2018-05-04T23:57:22.348Z,17.50
2018-05-04T23:59:51.362Z,17.50
